Flight Track Log - Related Links

Times and Time Zones

All times are in EDT time to prevent confusion due to time zone crossing. See the DLA1865 flight status page for this flight to view local times or setup timezone preferences in your user account.

Time Position Orientation Groundspeed Altitude Reporting Facility
EDT Latitude Longitude Course Direction KTS MPH feet Rate Location/Type
Wed 03:35:00 PM 46.0409 9.1638 36° Northeast  Level Estimated
Wed 03:36:00 PM 46.0993 9.2265 37° Northeast  Level Estimated
Wed 03:37:00 PM 46.1578 9.2894 37° Northeast  Level Estimated
Wed 03:38:00 PM 46.2162 9.3525 37° Northeast  Level Estimated
Wed 03:39:00 PM 46.2745 9.4156 37° Northeast  Level Estimated
Wed 03:40:00 PM 46.3329 9.4789 37° Northeast  Level Estimated
Wed 03:41:00 PM 46.3912 9.5424 37° Northeast  Level Estimated
Wed 03:42:00 PM 46.4494 9.6059 37° Northeast  Level Estimated
Wed 03:43:00 PM 46.5076 9.6697 37° Northeast  Level Estimated
Wed 03:44:00 PM 46.5658 9.7335 37° Northeast  Level Estimated
Wed 03:45:00 PM 46.6240 9.7975 37° Northeast  Level Estimated
Wed 03:46:00 PM 46.6821 9.8616 37° Northeast  Level Estimated
Wed 03:47:00 PM 46.7402 9.9258 37° Northeast  Level Estimated
Wed 03:48:00 PM 46.7982 9.9902 37° Northeast  Level Estimated
Wed 03:49:00 PM 46.8563 10.0548 37° Northeast  Level Estimated
Wed 03:50:00 PM 46.9142 10.1194 37° Northeast  Level Estimated
Wed 03:51:00 PM 46.9722 10.1843 37° Northeast  Level Estimated
Wed 03:52:00 PM 47.0301 10.2492 37° Northeast  Level Estimated
Wed 03:53:00 PM 47.0879 10.3143 37° Northeast  Level Estimated
Wed 03:54:00 PM 47.1458 10.3795 37° Northeast  Level Estimated
Wed 03:55:00 PM 47.2035 10.4449 38° Northeast  Level Estimated
Wed 03:56:00 PM 47.2613 10.5105 38° Northeast  Level Estimated
Wed 03:57:00 PM 47.3190 10.5761 38° Northeast  Level Estimated
Wed 03:58:00 PM 47.3767 10.6419 38° Northeast  Level Estimated
Wed 03:59:00 PM 47.4343 10.7079 38° Northeast  Level Estimated
Wed 04:00:00 PM 47.4919 10.7740 38° Northeast  Level Estimated
Wed 04:01:00 PM 47.5495 10.8402 38° Northeast  Level Estimated
Wed 04:02:00 PM 47.6070 10.9066 38° Northeast  Level Estimated
Wed 04:03:00 PM 47.6645 10.9731 38° Northeast  Level Estimated
Wed 04:04:00 PM 47.7220 11.0398 38° Northeast  Level Estimated
Wed 04:05:00 PM 47.7794 11.1066 38° Northeast  Level Estimated
Wed 04:06:00 PM 47.8368 11.1736 38° Northeast  Level Estimated
Wed 04:07:00 PM 47.8941 11.2407 38° Northeast  Level Estimated
Wed 04:08:00 PM 47.9514 11.3080 38° Northeast  Level Estimated
Wed 04:09:00 PM 48.0086 11.3754 38° Northeast  Level Estimated
Wed 04:10:00 PM 48.0658 11.4430 38° Northeast  Level Estimated
Wed 04:11:00 PM 48.1230 11.5107 38° Northeast  Level Estimated
Wed 04:12:00 PM 48.1801 11.5786 38° Northeast  Level Estimated
Wed 04:13:00 PM 48.2372 11.6466 38° Northeast  Level Estimated
Wed 04:14:00 PM 48.2943 11.7148 38° Northeast  Level Estimated
Wed 04:15:00 PM 48.3513 11.7831 39° Northeast  Level Estimated
Wed 04:16:00 PM 48.3538 11.7861 39° Northeast  Level Estimated
Wed 04:17:00 PM 48.3538 11.7861 318° Northwest  Level Estimated
Wed 04:18:00 PM 48.3538 11.7861 318° Northwest  Level Estimated
Wed 04:19:00 PM 48.3538 11.7861 318° Northwest  Level Estimated
Wed 04:20:00 PM 48.3538 11.7861 318° Northwest  Level Estimated
Wed 04:21:00 PM 48.3538 11.7861 318° Northwest  Level Estimated
Wed 04:22:00 PM 48.3538 11.7861 318° Northwest  Level Estimated
Wed 04:23:00 PM 48.3538 11.7861 318° Northwest  Level Estimated
Wed 04:24:00 PM 48.3538 11.7861 318° Northwest  Level Estimated
Wed 04:25:00 PM 48.3538 11.7861 318° Northwest  Level Estimated
Wed 04:26:00 PM 48.3538 11.7861 318° Northwest  Level Estimated
Wed 04:27:00 PM 48.3538 11.7861 318° Northwest  Level Estimated
Wed 04:28:00 PM 48.3538 11.7861 318° Northwest  Level Estimated
Wed 04:29:00 PM 48.3538 11.7861 318° Northwest  Level Estimated
Wed 04:30:00 PM 48.3538 11.7861 318° Northwest  Level Estimated
Wed 04:31:00 PM 48.3538 11.7861 318° Northwest  Level Estimated

Login

Don't have an account? Register now (free) for customized features, flight alerts, and more!